Time;durP1;ratioP1;P1;durP2;ratioP2;P2;SDS_P1;SDS_P2;PMS_P1;PMS_P2;Temp;Humidity;BMP_temperature;BMP_pressure;BME280_temperature;BME280_humidity;BME280_pressure;Samples;Min_cycle;Max_cycle;Signal;HPM_P1;HPM_P2
2021/11/09 00:00:18;;;;;;;15.70;12.02;;;;;;;9.11;100.00;100427.94;5036055;28;20536;-94
2021/11/09 00:02:47;;;;;;;17.20;10.73;;;;;;;9.29;100.00;100432.38;5016908;28;20042;-96
2021/11/09 00:05:17;;;;;;;15.73;9.60;;;;;;;9.29;100.00;100429.75;5019425;28;20469;-96
2021/11/09 00:07:50;;;;;;;13.68;10.15;;;;;;;9.11;100.00;100439.19;5018254;28;20488;-89
2021/11/09 00:10:20;;;;;;;13.20;11.43;;;;;;;9.05;100.00;100448.97;5034695;28;20045;-91
2021/11/09 00:12:54;;;;;;;15.57;11.20;;;;;;;9.22;100.00;100440.50;5034882;28;20147;-87
2021/11/09 00:15:23;;;;;;;12.18;10.27;;;;;;;9.20;100.00;100437.94;5038023;28;20049;-90
2021/11/09 00:17:53;;;;;;;14.05;12.63;;;;;;;9.31;100.00;100438.34;5037841;28;20053;-90
2021/11/09 00:20:22;;;;;;;11.88;10.65;;;;;;;9.25;100.00;100440.34;5036287;28;20091;-91
2021/11/09 00:22:49;;;;;;;12.98;10.75;;;;;;;9.25;100.00;100443.78;5037999;28;20046;-96
2021/11/09 00:25:18;;;;;;;14.45;12.25;;;;;;;9.37;100.00;100427.66;5037300;28;20072;-94
2021/11/09 00:27:46;;;;;;;17.88;11.27;;;;;;;9.34;100.00;100430.41;5035538;28;20045;-95
2021/11/09 00:30:16;;;;;;;15.68;11.52;;;;;;;9.27;100.00;100422.91;5034174;28;20124;-93
2021/11/09 00:32:43;;;;;;;13.30;11.50;;;;;;;9.36;100.00;100425.13;5034761;28;20511;-94
2021/11/09 00:35:12;;;;;;;14.95;12.15;;;;;;;9.30;100.00;100430.59;5035196;28;20065;-93
2021/11/09 00:37:41;;;;;;;15.25;12.88;;;;;;;9.37;100.00;100432.88;5034621;28;20050;-94
2021/11/09 00:40:10;;;;;;;15.82;11.82;;;;;;;9.31;100.00;100440.09;5034531;28;20046;-93
2021/11/09 00:42:37;;;;;;;14.20;12.70;;;;;;;9.58;100.00;100449.34;5034563;28;20045;-94
2021/11/09 00:45:07;;;;;;;16.30;12.68;;;;;;;9.31;100.00;100445.28;5034812;28;20050;-95
2021/11/09 00:47:34;;;;;;;16.02;13.57;;;;;;;9.36;100.00;100443.34;5034128;28;20072;-94
2021/11/09 00:50:05;;;;;;;16.92;13.80;;;;;;;9.24;100.00;100444.72;5034966;28;20429;-94
2021/11/09 00:52:33;;;;;;;15.95;14.25;;;;;;;9.35;100.00;100437.31;5034443;28;20423;-94
2021/11/09 00:55:01;;;;;;;18.00;14.40;;;;;;;9.34;100.00;100435.63;5032910;28;20056;-95
2021/11/09 00:57:28;;;;;;;16.08;13.13;;;;;;;9.22;100.00;100433.53;5034405;28;20038;-95
2021/11/09 00:59:54;;;;;;;15.77;12.82;;;;;;;9.35;100.00;100432.09;5031270;28;20503;-94
2021/11/09 01:02:21;;;;;;;15.45;13.77;;;;;;;9.31;100.00;100433.13;5018462;28;20048;-95
2021/11/09 01:04:48;;;;;;;20.85;14.05;;;;;;;9.12;100.00;100430.47;5034197;28;20043;-94
2021/11/09 01:07:15;;;;;;;15.77;13.30;;;;;;;9.02;100.00;100431.75;5033945;28;20187;-94
2021/11/09 01:09:42;;;;;;;17.15;14.25;;;;;;;9.33;100.00;100428.72;5033980;28;20045;-92
2021/11/09 01:12:10;;;;;;;17.80;14.25;;;;;;;9.30;100.00;100423.63;5034231;28;20038;-92
2021/11/09 01:14:38;;;;;;;18.33;13.82;;;;;;;9.32;100.00;100431.38;5034153;28;20042;-93
2021/11/09 01:17:05;;;;;;;17.33;14.27;;;;;;;9.38;100.00;100442.41;5033964;28;20132;-93
2021/11/09 01:19:33;;;;;;;16.00;13.77;;;;;;;9.33;100.00;100439.13;5033696;28;20496;-93
2021/11/09 01:22:02;;;;;;;16.17;14.32;;;;;;;9.28;100.00;100441.09;5034183;28;20041;-95
2021/11/09 01:24:30;;;;;;;16.80;14.75;;;;;;;9.19;100.00;100444.06;5034264;28;20045;-95
2021/11/09 01:27:06;;;;;;;18.88;14.52;;;;;;;9.21;100.00;100442.22;5034043;28;20136;-95
2021/11/09 01:29:32;;;;;;;18.33;14.60;;;;;;;9.24;100.00;100449.91;5032802;28;20069;-93
2021/11/09 01:32:00;;;;;;;16.63;14.27;;;;;;;9.12;100.00;100458.22;5033762;28;20435;-93
2021/11/09 01:34:27;;;;;;;18.83;13.60;;;;;;;9.18;100.00;100460.56;5032973;28;20117;-93
2021/11/09 01:36:55;;;;;;;20.33;15.63;;;;;;;9.14;100.00;100456.41;5033491;28;20042;-93
2021/11/09 01:39:22;;;;;;;19.15;14.45;;;;;;;9.24;100.00;100441.28;5033483;28;20500;-92
2021/11/09 01:41:49;;;;;;;16.13;14.13;;;;;;;9.17;100.00;100444.13;5033627;28;20038;-91
2021/11/09 01:44:16;;;;;;;18.58;13.27;;;;;;;9.25;100.00;100443.78;5034070;28;20380;-92
2021/11/09 01:46:44;;;;;;;18.13;14.38;;;;;;;9.21;100.00;100444.81;5034234;28;20056;-93
2021/11/09 01:49:11;;;;;;;17.90;15.50;;;;;;;9.28;100.00;100446.28;5034118;28;20042;-92
2021/11/09 01:51:38;;;;;;;18.83;13.82;;;;;;;9.27;100.00;100448.94;5048721;28;20052;-91
2021/11/09 01:54:05;;;;;;;19.35;14.77;;;;;;;9.18;100.00;100445.81;5052950;28;20030;-92
2021/11/09 01:56:33;;;;;;;14.70;13.07;;;;;;;9.32;100.00;100442.66;5053579;28;20081;-89
2021/11/09 01:59:00;;;;;;;16.52;14.55;;;;;;;9.40;100.00;100440.56;5057006;28;20046;-89
2021/11/09 02:01:28;;;;;;;15.63;14.00;;;;;;;9.25;100.00;100437.75;5055980;28;20033;-90
2021/11/09 02:03:59;;;;;;;17.70;14.02;;;;;;;9.35;100.00;100439.91;5038011;28;20041;-88
2021/11/09 02:06:27;;;;;;;17.27;14.27;;;;;;;9.34;100.00;100450.38;5038376;28;20510;-88
2021/11/09 02:09:13;;;;;;;16.58;14.32;;;;;;;9.29;100.00;100445.38;5054786;28;20109;-91
2021/11/09 02:11:41;;;;;;;17.88;14.07;;;;;;;9.34;100.00;100448.63;5055276;28;20021;-90
2021/11/09 02:14:08;;;;;;;19.42;14.75;;;;;;;9.34;100.00;100453.84;5056353;28;20053;-86
2021/11/09 02:16:36;;;;;;;17.20;14.18;;;;;;;9.14;100.00;100451.19;5055954;28;20064;-92
2021/11/09 02:19:05;;;;;;;19.10;14.52;;;;;;;9.13;100.00;100447.75;5055521;28;20045;-95
2021/11/09 02:21:32;;;;;;;22.23;14.95;;;;;;;9.13;100.00;100450.34;5056438;28;20053;-89
2021/11/09 02:24:00;;;;;;;18.77;15.38;;;;;;;9.20;100.00;100453.53;5056884;28;20044;-94
2021/11/09 02:26:28;;;;;;;20.23;15.55;;;;;;;9.23;100.00;100452.59;5054655;28;20046;-94
2021/11/09 02:28:57;;;;;;;15.30;13.32;;;;;;;9.27;100.00;100455.00;5040705;28;20137;-95
2021/11/09 02:31:28;;;;;;;17.40;14.73;;;;;;;9.31;100.00;100460.91;5034080;28;20038;-94
2021/11/09 02:33:55;;;;;;;17.85;14.98;;;;;;;9.30;100.00;100448.81;5035061;28;20068;-96
2021/11/09 02:36:22;;;;;;;21.30;15.77;;;;;;;9.30;100.00;100449.66;5034659;28;20044;-93
2021/11/09 02:38:49;;;;;;;16.60;13.68;;;;;;;9.37;100.00;100447.63;5033682;28;20050;-94
2021/11/09 02:41:16;;;;;;;18.13;14.68;;;;;;;9.29;100.00;100452.34;5033641;28;20497;-93
2021/11/09 02:43:44;;;;;;;18.27;14.55;;;;;;;9.23;100.00;100452.59;5033970;28;20053;-96
2021/11/09 02:49:08;;;;;;;19.08;16.48;;;;;;;9.30;100.00;100449.66;5039256;28;20046;-94
2021/11/09 02:51:52;;;;;;;19.73;15.30;;;;;;;9.15;100.00;100460.69;5035223;28;20048;-96
2021/11/09 03:03:58;;;;;;;21.10;16.33;;;;;;;9.34;100.00;100474.66;5050316;28;20063;-93
2021/11/09 03:06:28;;;;;;;21.83;15.75;;;;;;;9.28;100.00;100481.88;5055706;28;20065;-94
2021/11/09 03:09:15;;;;;;;18.48;14.60;;;;;;;9.41;100.00;100476.06;5036110;28;20037;-95
2021/11/09 03:11:53;;;;;;;20.02;16.08;;;;;;;9.28;100.00;100481.88;5039111;28;20048;-95
2021/11/09 03:14:22;;;;;;;17.80;14.50;;;;;;;9.21;100.00;100480.41;5038422;28;20402;-92
2021/11/09 03:16:49;;;;;;;19.30;15.68;;;;;;;9.22;100.00;100476.91;5036035;28;20091;-90
2021/11/09 03:44:19;;;;;;;15.50;13.88;;;;;;;9.04;100.00;100476.72;5028122;28;20376;-95
2021/11/09 03:46:53;;;;;;;15.67;12.77;;;;;;;9.04;100.00;100483.69;5030618;28;20045;-95
2021/11/09 03:49:23;;;;;;;15.63;12.90;;;;;;;9.07;100.00;100483.56;5028451;28;20042;-95
2021/11/09 03:51:50;;;;;;;17.45;13.73;;;;;;;8.91;100.00;100483.31;5031620;28;20033;-92
2021/11/09 03:54:19;;;;;;;14.27;11.82;;;;;;;9.01;100.00;100494.22;5016541;28;20456;-94
2021/11/09 03:59:51;;;;;;;13.63;10.70;;;;;;;8.95;100.00;100505.72;5028015;28;20079;-96
2021/11/09 04:02:26;;;;;;;13.93;11.20;;;;;;;9.01;100.00;100509.81;5017060;28;20054;-95
2021/11/09 04:05:06;;;;;;;13.27;10.95;;;;;;;9.11;100.00;100509.41;5017100;28;20068;-95
2021/11/09 04:29:16;;;;;;;16.17;9.50;;;;;;;9.07;100.00;100514.78;5034857;28;20049;-90
2021/11/09 04:31:51;;;;;;;13.63;10.02;;;;;;;9.11;100.00;100513.75;5034381;28;20115;-90
2021/11/09 05:01:34;;;;;;;16.60;12.07;;;;;;;8.86;100.00;100543.28;5034288;28;20060;-93
2021/11/09 05:09:30;;;;;;;18.88;13.55;;;;;;;9.19;100.00;100566.31;5032521;28;20041;-92
2021/11/09 05:11:58;;;;;;;18.00;12.48;;;;;;;9.23;100.00;100562.69;5030555;28;20042;-89
2021/11/09 05:14:29;;;;;;;18.02;13.15;;;;;;;9.30;100.00;100571.09;5027952;28;20041;-88
2021/11/09 05:16:57;;;;;;;18.00;15.23;;;;;;;9.28;100.00;100565.94;5032873;28;20048;-91
2021/11/09 05:19:25;;;;;;;19.83;14.90;;;;;;;9.33;100.00;100573.56;5033795;28;20049;-93
2021/11/09 05:21:51;;;;;;;21.83;14.27;;;;;;;9.28;100.00;100563.34;5034172;28;20136;-93
2021/11/09 05:24:18;;;;;;;20.98;14.98;;;;;;;9.26;100.00;100572.94;5034205;28;20046;-96
2021/11/09 05:26:47;;;;;;;19.42;16.60;;;;;;;9.30;100.00;100573.69;5023156;28;20081;-95
2021/11/09 05:29:15;;;;;;;20.20;15.55;;;;;;;9.21;100.00;100580.09;5030065;28;20534;-94
2021/11/09 05:31:42;;;;;;;22.17;16.35;;;;;;;9.11;100.00;100574.41;5026758;28;20046;-90
2021/11/09 05:34:10;;;;;;;22.63;16.45;;;;;;;9.22;100.00;100581.81;5032308;28;20041;-92
2021/11/09 05:36:40;;;;;;;26.42;16.50;;;;;;;9.32;100.00;100593.53;5033555;28;20132;-92
2021/11/09 05:39:19;;;;;;;23.88;17.33;;;;;;;9.33;100.00;100584.81;5029989;28;20045;-91
2021/11/09 05:41:50;;;;;;;24.33;17.98;;;;;;;9.40;100.00;100594.06;5024022;28;20096;-91
2021/11/09 05:44:18;;;;;;;22.70;16.85;;;;;;;9.33;100.00;100592.63;5034130;28;20041;-94
2021/11/09 05:46:44;;;;;;;22.27;15.98;;;;;;;9.35;100.00;100597.75;5025016;28;20042;-93
2021/11/09 05:49:11;;;;;;;21.83;16.88;;;;;;;9.40;100.00;100612.28;5027416;28;20050;-93
2021/11/09 05:51:39;;;;;;;20.65;16.33;;;;;;;9.43;100.00;100616.53;5045693;28;20034;-91
2021/11/09 05:54:07;;;;;;;24.95;17.77;;;;;;;9.37;100.00;100612.41;5046648;28;20042;-93
2021/11/09 05:56:33;;;;;;;24.38;17.00;;;;;;;9.45;100.00;100617.31;5033761;28;20034;-90
2021/11/09 05:59:00;;;;;;;20.33;17.73;;;;;;;9.54;100.00;100619.56;5030323;28;20048;-91
2021/11/09 06:01:27;;;;;;;23.80;15.65;;;;;;;9.49;100.00;100631.06;5026290;28;20435;-89
2021/11/09 06:03:54;;;;;;;21.10;15.18;;;;;;;9.53;100.00;100627.41;5033197;28;20051;-90
2021/11/09 06:06:21;;;;;;;25.45;16.42;;;;;;;9.48;100.00;100631.94;5029736;28;20042;-89
2021/11/09 06:08:50;;;;;;;20.45;17.35;;;;;;;9.44;100.00;100634.69;5030228;28;20079;-94
2021/11/09 06:11:18;;;;;;;19.20;15.40;;;;;;;9.48;100.00;100639.75;5033281;28;20049;-92
2021/11/09 06:13:45;;;;;;;19.65;15.60;;;;;;;9.38;100.00;100645.34;5031125;28;20431;-89
2021/11/09 06:16:13;;;;;;;20.55;14.52;;;;;;;9.51;100.00;100652.66;5017095;28;20594;-94
2021/11/09 06:18:40;;;;;;;17.10;13.50;;;;;;;9.49;100.00;100652.72;5036658;28;20128;-96
2021/11/09 06:21:07;;;;;;;17.45;14.35;;;;;;;9.48;100.00;100660.56;5037680;28;20045;-93
2021/11/09 06:23:34;;;;;;;17.13;13.30;;;;;;;9.34;100.00;100664.56;5032553;28;20053;-86
2021/11/09 06:26:01;;;;;;;18.17;15.35;;;;;;;9.38;100.00;100667.91;5026050;28;20053;-92
2021/11/09 06:28:28;;;;;;;32.20;14.95;;;;;;;9.84;100.00;100682.56;5026479;28;20041;-89
2021/11/09 06:30:55;;;;;;;18.67;12.90;;;;;;;9.74;100.00;100691.63;5030356;28;20037;-89
2021/11/09 06:33:22;;;;;;;15.80;11.77;;;;;;;9.53;100.00;100698.53;5030177;28;20447;-90
2021/11/09 06:35:51;;;;;;;17.73;11.77;;;;;;;9.50;100.00;100690.84;5031355;28;20068;-88
2021/11/09 06:38:18;;;;;;;15.70;10.45;;;;;;;9.47;100.00;100701.38;5027490;28;20146;-87
2021/11/09 06:40:45;;;;;;;16.63;11.27;;;;;;;9.42;100.00;100705.91;5026722;28;20038;-86
2021/11/09 06:43:12;;;;;;;14.55;11.63;;;;;;;9.56;100.00;100715.78;5031625;28;20044;-81
2021/11/09 06:45:39;;;;;;;14.13;10.95;;;;;;;9.49;100.00;100719.53;5032969;28;20100;-89
2021/11/09 06:48:06;;;;;;;21.15;10.45;;;;;;;9.56;100.00;100721.84;5033732;28;20048;-91
2021/11/09 06:50:34;;;;;;;13.13;10.65;;;;;;;9.60;100.00;100725.19;5032204;28;20404;-90
2021/11/09 06:53:01;;;;;;;12.25;10.20;;;;;;;9.65;100.00;100736.28;5030440;28;20061;-90
2021/11/09 06:55:34;;;;;;;13.70;11.75;;;;;;;9.73;100.00;100735.97;5029809;28;20075;-89
2021/11/09 06:58:01;;;;;;;13.75;11.43;;;;;;;9.49;100.00;100750.78;5027506;28;20091;-89
2021/11/09 07:00:28;;;;;;;13.18;10.45;;;;;;;9.64;100.00;100745.84;5030695;28;20042;-90
2021/11/09 07:02:55;;;;;;;14.02;10.90;;;;;;;9.68;100.00;100746.53;5029542;28;20113;-89
2021/11/09 07:05:22;;;;;;;15.40;11.45;;;;;;;9.72;100.00;100755.94;5034517;28;20079;-87
2021/11/09 07:07:49;;;;;;;15.93;12.70;;;;;;;9.65;100.00;100762.31;5035049;28;20472;-89
2021/11/09 07:10:16;;;;;;;15.73;11.68;;;;;;;9.71;100.00;100767.28;5032049;28;20203;-84
2021/11/09 07:12:43;;;;;;;17.25;11.98;;;;;;;9.89;100.00;100766.53;5032790;28;20160;-89
2021/11/09 07:15:11;;;;;;;15.68;11.02;;;;;;;9.95;100.00;100770.66;5028203;28;20059;-84
2021/11/09 07:17:39;;;;;;;16.92;10.50;;;;;;;9.76;100.00;100777.50;5018690;28;20144;-86
2021/11/09 07:20:12;;;;;;;11.93;9.32;;;;;;;9.83;100.00;100781.56;5017257;28;20050;-88
2021/11/09 07:22:39;;;;;;;12.77;9.90;;;;;;;9.62;100.00;100783.22;5031108;28;20393;-89
2021/11/09 07:25:08;;;;;;;15.93;10.45;;;;;;;9.71;100.00;100788.94;5030730;28;20071;-87
2021/11/09 07:27:37;;;;;;;11.13;9.68;;;;;;;9.80;100.00;100797.28;5033483;28;20049;-87
2021/11/09 07:30:05;;;;;;;12.38;9.23;;;;;;;9.84;100.00;100804.09;5032011;28;20097;-89
2021/11/09 07:32:32;;;;;;;14.60;9.80;;;;;;;9.90;100.00;100816.88;5023680;28;20041;-89
2021/11/09 07:34:59;;;;;;;11.07;9.20;;;;;;;9.97;100.00;100821.81;5029587;28;20088;-85
2021/11/09 07:37:28;;;;;;;14.00;10.20;;;;;;;9.86;100.00;100818.75;5027238;28;20124;-86
2021/11/09 07:39:55;;;;;;;12.63;8.80;;;;;;;10.05;100.00;100825.88;5030390;28;20045;-86
2021/11/09 07:42:22;;;;;;;13.23;9.73;;;;;;;10.02;100.00;100824.25;5032120;28;20092;-89
2021/11/09 07:44:50;;;;;;;10.27;9.00;;;;;;;10.22;100.00;100829.50;5029064;28;20061;-91
2021/11/09 07:47:21;;;;;;;12.65;8.20;;;;;;;9.93;100.00;100820.22;5031087;28;20042;-91
2021/11/09 07:49:48;;;;;;;15.02;10.02;;;;;;;10.38;98.85;100831.53;5030508;28;20042;-87
2021/11/09 07:52:15;;;;;;;13.60;10.50;;;;;;;10.40;98.21;100829.75;5023728;28;20142;-86
2021/11/09 07:54:46;;;;;;;16.67;11.63;;;;;;;10.48;98.20;100830.25;5028845;28;20045;-88
2021/11/09 07:57:14;;;;;;;18.50;10.15;;;;;;;10.28;100.00;100835.41;5030560;28;20038;-88
2021/11/09 07:59:58;;;;;;;12.18;10.07;;;;;;;10.11;100.00;100836.03;5029621;28;20057;-87
2021/11/09 08:02:28;;;;;;;16.43;10.27;;;;;;;10.27;100.00;100834.56;5028112;28;20052;-90
2021/11/09 08:05:06;;;;;;;12.20;9.75;;;;;;;10.21;100.00;100837.38;5034056;28;20496;-89
2021/11/09 08:07:37;;;;;;;29.02;19.60;;;;;;;10.25;99.69;100840.75;5032370;28;20441;-87
2021/11/09 08:10:07;;;;;;;34.58;22.40;;;;;;;10.05;96.57;100844.09;5033418;28;20542;-92
2021/11/09 08:12:46;;;;;;;27.73;19.48;;;;;;;10.14;94.95;100838.53;5034058;28;20051;-84
2021/11/09 08:15:13;;;;;;;16.88;12.68;;;;;;;10.36;94.71;100847.25;5022280;28;20045;-86
2021/11/09 08:17:40;;;;;;;16.30;11.55;;;;;;;10.56;95.35;100858.66;5025300;28;20041;-83
2021/11/09 08:20:10;;;;;;;16.70;13.90;;;;;;;10.51;96.15;100852.75;5027315;28;20042;-88
2021/11/09 08:22:36;;;;;;;19.73;14.48;;;;;;;10.36;95.44;100860.28;5024701;28;20042;-87
2021/11/09 08:25:03;;;;;;;16.60;14.25;;;;;;;10.14;98.90;100864.59;5018184;28;20426;-87
2021/11/09 08:27:30;;;;;;;15.90;10.88;;;;;;;10.41;100.00;100868.75;5016325;28;20556;-83
2021/11/09 08:29:58;;;;;;;14.23;12.73;;;;;;;10.40;97.24;100872.28;5019003;28;20045;-86
2021/11/09 08:32:26;;;;;;;14.90;10.85;;;;;;;10.62;93.72;100874.03;5027937;28;20546;-84
2021/11/09 08:34:53;;;;;;;17.17;12.30;;;;;;;10.78;92.57;100876.88;5029563;28;20053;-84
2021/11/09 08:37:20;;;;;;;18.83;13.50;;;;;;;10.59;93.56;100884.56;5028805;28;20450;-87
2021/11/09 08:39:48;;;;;;;18.02;13.98;;;;;;;10.82;92.25;100888.88;5031710;28;20060;-84
2021/11/09 08:45:06;;;;;;;26.67;16.35;;;;;;;10.75;92.74;100885.66;5029152;28;20048;-83
2021/11/09 08:47:38;;;;;;;22.30;17.27;;;;;;;10.96;92.19;100886.53;5028500;28;20134;-85
2021/11/09 08:50:05;;;;;;;22.58;16.77;;;;;;;10.87;91.63;100893.00;5031207;28;20042;-85
2021/11/09 08:52:34;;;;;;;22.70;15.15;;;;;;;10.70;90.47;100890.19;5029723;28;20046;-82
2021/11/09 08:58:16;;;;;;;20.45;13.57;;;;;;;10.82;91.96;100897.56;5028967;28;20046;-83
2021/11/09 09:06:14;;;;;;;13.57;11.05;;;;;;;10.96;87.81;100916.06;5027524;28;20052;-82
2021/11/09 09:08:41;;;;;;;13.82;12.35;;;;;;;10.82;87.80;100917.56;5028449;28;20041;-83
2021/11/09 09:11:08;;;;;;;18.65;13.52;;;;;;;11.00;86.57;100915.06;5030349;28;20045;-82
2021/11/09 09:13:35;;;;;;;13.43;12.05;;;;;;;11.01;87.84;100918.50;5023206;28;20092;-83
2021/11/09 09:16:03;;;;;;;12.30;10.32;;;;;;;10.65;90.12;100919.09;5017927;28;20088;-82
2021/11/09 09:18:30;;;;;;;11.85;10.25;;;;;;;11.28;87.34;100917.34;5028809;28;20037;-82
2021/11/09 09:21:02;;;;;;;15.63;12.57;;;;;;;11.37;85.35;100916.13;5023892;28;20500;-84
2021/11/09 09:23:35;;;;;;;14.32;9.98;;;;;;;11.69;81.90;100916.50;5026687;28;20045;-84
2021/11/09 09:29:07;;;;;;;16.35;10.50;;;;;;;11.08;85.18;100908.66;5021360;28;20045;-87
2021/11/09 09:56:20;;;;;;;14.85;8.38;;;;;;;11.30;85.10;100947.78;5029162;28;20037;-83
2021/11/09 09:58:47;;;;;;;;;;;;;;;11.16;78.40;100945.72;5023485;28;20037;-80
2021/11/09 10:01:14;;;;;;;11.98;8.07;;;;;;;10.96;78.99;100943.94;5016378;28;20285;-84
2021/11/09 10:03:42;;;;;;;7.55;6.47;;;;;;;10.89;80.32;100947.72;5021058;28;20041;-82
2021/11/09 10:06:09;;;;;;;8.68;7.03;;;;;;;10.99;80.00;100944.66;5014430;28;20092;-83
2021/11/09 10:08:47;;;;;;;14.52;6.30;;;;;;;10.97;76.92;100946.50;5015609;28;20480;-84
2021/11/09 10:11:39;;;;;;;8.15;5.80;;;;;;;11.80;76.70;100953.44;5029679;28;20045;-83
2021/11/09 10:14:07;;;;;;;8.13;5.68;;;;;;;11.16;71.98;100954.41;5028148;28;20084;-81
2021/11/09 10:16:38;;;;;;;9.30;7.97;;;;;;;11.45;73.38;100958.44;5020862;28;20419;-81
2021/11/09 10:19:05;;;;;;;9.95;6.80;;;;;;;11.39;73.16;100969.09;5029979;28;20069;-82
2021/11/09 10:21:37;;;;;;;7.22;5.35;;;;;;;11.12;68.97;100962.41;5031453;28;20038;-81
2021/11/09 10:24:26;;;;;;;9.13;6.43;;;;;;;11.67;68.63;100958.34;5030611;28;20049;-79
2021/11/09 10:26:57;;;;;;;8.98;5.97;;;;;;;11.90;68.26;100960.00;5032141;28;20067;-80
2021/11/09 10:29:42;;;;;;;8.93;5.82;;;;;;;11.14;70.83;100964.06;5029981;28;20404;-80
2021/11/09 10:32:16;;;;;;;8.00;6.38;;;;;;;11.37;68.67;100964.88;5027730;28;20054;-82
2021/11/09 10:34:44;;;;;;;7.30;5.80;;;;;;;11.59;68.12;100964.81;5030494;28;20041;-80
2021/11/09 10:37:25;;;;;;;6.70;5.45;;;;;;;11.42;69.12;100957.69;5032517;28;20451;-81
2021/11/09 10:40:17;;;;;;;8.00;6.60;;;;;;;11.61;69.10;100963.84;5032399;28;20136;-82
2021/11/09 10:42:47;;;;;;;7.00;6.20;;;;;;;12.23;67.73;100956.78;5030448;28;20095;-81
2021/11/09 10:45:19;;;;;;;7.35;5.85;;;;;;;11.37;69.37;100960.50;5031529;28;20404;-81
2021/11/09 10:47:53;;;;;;;7.45;6.43;;;;;;;11.64;70.38;100963.69;5033385;28;20992;-85
2021/11/09 10:50:29;;;;;;;10.25;6.93;;;;;;;11.44;72.01;100967.16;5025312;28;20112;-83
2021/11/09 10:55:58;;;;;;;9.63;6.95;;;;;;;11.66;69.31;100972.31;5027167;28;20053;-79
2021/11/09 10:58:40;;;;;;;9.48;6.40;;;;;;;11.81;68.87;100968.19;5031767;28;20042;-79
2021/11/09 11:06:25;;;;;;;8.45;6.93;;;;;;;12.12;69.13;100972.94;5029975;28;20048;-78
2021/11/09 11:09:10;;;;;;;8.52;6.90;;;;;;;12.15;68.71;100969.38;5030710;28;20037;-80
2021/11/09 11:12:03;;;;;;;8.48;6.93;;;;;;;12.02;70.91;100967.28;5029838;28;20041;-79
2021/11/09 11:14:31;;;;;;;9.45;7.55;;;;;;;11.94;69.18;100964.19;5031692;28;20550;-83
2021/11/09 11:17:05;;;;;;;9.05;6.72;;;;;;;12.39;67.98;100963.00;5030137;28;20365;-80
2021/11/09 11:19:42;;;;;;;9.20;6.43;;;;;;;12.42;67.72;100962.88;5031990;28;20087;-82
2021/11/09 11:22:17;;;;;;;11.95;7.45;;;;;;;12.16;69.20;100964.06;5031410;28;20068;-81
2021/11/09 11:24:45;;;;;;;9.02;6.70;;;;;;;11.69;71.03;100973.94;5029680;28;20056;-82
2021/11/09 11:27:13;;;;;;;10.65;7.78;;;;;;;11.86;69.63;100974.09;5020067;28;20037;-82
2021/11/09 11:29:41;;;;;;;14.32;8.73;;;;;;;11.99;70.64;100970.03;5022852;28;20049;-85
2021/11/09 11:32:15;;;;;;;9.27;6.97;;;;;;;11.71;71.71;100975.56;5022181;28;20033;-81
2021/11/09 11:34:43;;;;;;;10.57;7.25;;;;;;;11.53;71.75;100977.22;5029454;28;20053;-80
2021/11/09 11:37:11;;;;;;;7.95;7.15;;;;;;;11.88;70.69;100977.50;5032124;28;20050;-79
2021/11/09 11:39:40;;;;;;;9.63;7.45;;;;;;;12.08;71.40;100979.22;5028839;28;20102;-80
2021/11/09 11:42:11;;;;;;;8.70;7.57;;;;;;;11.64;72.88;100960.25;5024373;28;20048;-80
2021/11/09 11:44:41;;;;;;;10.73;7.22;;;;;;;11.71;73.47;100953.84;5029437;28;20045;-82
2021/11/09 11:47:10;;;;;;;8.88;7.15;;;;;;;11.65;72.94;100954.09;5028060;28;20045;-81
2021/11/09 11:49:40;;;;;;;9.43;7.13;;;;;;;11.66;73.15;100956.63;5018925;28;20092;-84
2021/11/09 11:52:19;;;;;;;10.77;7.47;;;;;;;11.59;74.26;100955.22;5020671;28;20056;-83
2021/11/09 11:54:55;;;;;;;9.13;7.47;;;;;;;11.64;72.71;100957.63;5028910;28;20100;-84
2021/11/09 11:57:36;;;;;;;7.30;6.35;;;;;;;11.27;75.40;100953.97;5029684;28;20050;-86
2021/11/09 12:00:28;;;;;;;9.20;6.80;;;;;;;11.82;72.26;100954.25;5021002;28;20042;-80
2021/11/09 12:02:56;;;;;;;12.27;9.88;;;;;;;12.00;72.41;100945.59;5022050;28;20037;-82
2021/11/09 12:05:35;;;;;;;8.57;6.57;;;;;;;12.45;70.05;100933.94;5024951;28;20502;-82
2021/11/09 12:08:03;;;;;;;9.15;7.05;;;;;;;12.14;71.70;100931.91;5023790;28;20033;-81
2021/11/09 12:10:44;;;;;;;9.48;6.30;;;;;;;11.74;72.42;100945.88;5028697;28;20041;-83
2021/11/09 12:13:13;;;;;;;10.00;7.85;;;;;;;12.55;69.98;100943.06;5022403;28;20045;-82
2021/11/09 12:15:54;;;;;;;9.25;6.82;;;;;;;12.25;70.56;100945.34;5022054;28;20076;-79
2021/11/09 12:18:41;;;;;;;11.32;6.70;;;;;;;12.11;70.97;100950.34;5028118;28;20050;-82
2021/11/09 12:21:35;;;;;;;9.15;7.65;;;;;;;11.85;71.34;100941.06;5028932;28;20628;-82
2021/11/09 12:24:12;;;;;;;10.00;8.10;;;;;;;11.74;72.28;100936.28;5017625;28;20386;-81
2021/11/09 12:26:48;;;;;;;9.05;6.93;;;;;;;11.94;70.72;100940.66;5027739;28;20048;-83
2021/11/09 12:29:37;;;;;;;7.93;6.82;;;;;;;11.80;70.26;100943.84;5030339;28;20034;-80
2021/11/09 12:32:24;;;;;;;11.85;7.80;;;;;;;12.58;69.17;100957.78;5029365;28;20038;-81
2021/11/09 12:35:11;;;;;;;9.27;7.03;;;;;;;11.92;69.92;100950.31;5038572;28;20154;-86
2021/11/09 12:37:42;;;;;;;7.93;6.95;;;;;;;11.57;72.01;100954.44;5023937;28;20056;-84
2021/11/09 12:40:29;;;;;;;14.73;7.53;;;;;;;11.73;72.25;100952.03;5024961;28;20042;-89
2021/11/09 12:43:17;;;;;;;13.98;8.50;;;;;;;11.59;75.04;100960.44;5024860;28;20061;-88
2021/11/09 12:46:07;;;;;;;10.38;7.80;;;;;;;11.78;73.67;100958.75;5022372;28;20510;-87
2021/11/09 12:48:41;;;;;;;11.60;7.10;;;;;;;12.11;72.08;100962.56;5020556;28;20072;-88
2021/11/09 12:51:11;;;;;;;14.88;8.38;;;;;;;12.32;69.93;100964.22;5037650;28;20112;-87
2021/11/09 12:53:42;;;;;;;10.77;7.45;;;;;;;12.19;69.98;100976.97;5025958;28;20042;-89
2021/11/09 12:56:16;;;;;;;10.30;8.10;;;;;;;12.55;69.07;100979.69;5023070;28;20049;-91
2021/11/09 12:58:54;;;;;;;12.15;7.75;;;;;;;12.32;68.81;100978.13;5028706;28;20046;-90
2021/11/09 13:01:28;;;;;;;9.80;7.93;;;;;;;12.54;71.19;100979.75;5026961;28;20415;-89
2021/11/09 13:04:32;;;;;;;11.93;7.38;;;;;;;11.83;72.54;100976.84;5027266;28;20041;-90
2021/11/09 13:09:47;;;;;;;12.65;7.97;;;;;;;12.03;72.77;100996.88;5031716;28;20049;-93
2021/11/09 13:12:19;;;;;;;9.32;7.40;;;;;;;12.10;73.23;100997.47;5041337;28;20040;-87
2021/11/09 13:15:10;;;;;;;12.50;8.18;;;;;;;11.85;72.58;100980.25;5036422;28;20408;-85
2021/11/09 13:17:58;;;;;;;12.43;8.18;;;;;;;11.49;73.85;100975.63;5035916;28;20125;-85
2021/11/09 13:22:57;;;;;;;8.90;6.63;;;;;;;11.30;74.35;100979.94;5038141;28;20091;-87
2021/11/09 13:25:39;;;;;;;10.02;7.40;;;;;;;11.44;74.25;100995.88;5033876;28;20075;-88
2021/11/09 13:28:16;;;;;;;18.35;8.57;;;;;;;11.75;72.58;100998.03;5022887;28;20046;-94
2021/11/09 13:30:55;;;;;;;17.00;8.02;;;;;;;12.04;72.73;100999.44;5027835;28;20528;-90
2021/11/09 13:33:24;;;;;;;8.80;7.00;;;;;;;11.84;73.32;100999.44;5028554;28;20046;-84
2021/11/09 13:35:54;;;;;;;16.63;8.30;;;;;;;11.57;73.94;100992.75;5024309;28;20097;-89
2021/11/09 13:38:47;;;;;;;9.00;7.95;;;;;;;11.27;76.12;100993.13;5025909;28;20137;-86
2021/11/09 13:41:16;;;;;;;9.80;7.63;;;;;;;11.37;75.08;100999.66;5023378;28;20041;-91
2021/11/09 13:43:52;;;;;;;12.73;8.00;;;;;;;11.62;75.28;100996.88;5027783;28;20068;-88
2021/11/09 13:46:35;;;;;;;13.50;7.55;;;;;;;11.36;76.40;100992.75;5024482;28;20126;-90
2021/11/09 13:49:07;;;;;;;16.75;8.00;;;;;;;11.50;75.91;100992.16;5029120;28;20050;-92
2021/11/09 13:51:47;;;;;;;13.77;7.25;;;;;;;11.69;73.15;101002.69;5028493;28;20495;-89
2021/11/09 13:54:21;;;;;;;12.68;7.63;;;;;;;11.79;74.61;101006.59;5029023;28;20493;-81
2021/11/09 13:56:49;;;;;;;;;;;;;;;12.09;72.61;100999.25;5025024;28;20136;-78
2021/11/09 13:59:23;;;;;;;8.75;7.57;;;;;;;12.03;72.35;100997.72;5029386;28;20272;-80